sensor_id;sensor_type;location;lat;lon;timestamp;P1;durP1;ratioP1;P2;durP2;ratioP2
1010;SDS011;494;48.744;10.106;2022-07-19T00:00:17;14.80;;;6.90;;
1010;SDS011;494;48.744;10.106;2022-07-19T00:02:48;15.37;;;7.13;;
1010;SDS011;494;48.744;10.106;2022-07-19T00:05:17;16.13;;;6.50;;
1010;SDS011;494;48.744;10.106;2022-07-19T00:07:47;15.77;;;7.60;;
1010;SDS011;494;48.744;10.106;2022-07-19T00:10:16;15.03;;;7.20;;
1010;SDS011;494;48.744;10.106;2022-07-19T00:12:48;17.23;;;7.40;;
1010;SDS011;494;48.744;10.106;2022-07-19T00:15:17;13.30;;;7.00;;
1010;SDS011;494;48.744;10.106;2022-07-19T00:17:46;13.10;;;6.97;;
1010;SDS011;494;48.744;10.106;2022-07-19T00:20:17;14.53;;;7.07;;
1010;SDS011;494;48.744;10.106;2022-07-19T00:22:48;13.77;;;6.80;;
1010;SDS011;494;48.744;10.106;2022-07-19T00:25:17;13.87;;;6.67;;
1010;SDS011;494;48.744;10.106;2022-07-19T00:27:45;16.30;;;7.30;;
1010;SDS011;494;48.744;10.106;2022-07-19T00:30:14;13.20;;;7.30;;
1010;SDS011;494;48.744;10.106;2022-07-19T00:32:43;14.57;;;7.50;;
1010;SDS011;494;48.744;10.106;2022-07-19T00:35:13;14.10;;;6.97;;
1010;SDS011;494;48.744;10.106;2022-07-19T00:37:41;15.53;;;8.10;;
1010;SDS011;494;48.744;10.106;2022-07-19T00:40:14;13.57;;;7.10;;
1010;SDS011;494;48.744;10.106;2022-07-19T00:42:50;14.80;;;7.77;;
1010;SDS011;494;48.744;10.106;2022-07-19T00:45:19;15.20;;;7.50;;
1010;SDS011;494;48.744;10.106;2022-07-19T00:47:47;13.27;;;6.70;;
1010;SDS011;494;48.744;10.106;2022-07-19T00:50:18;16.33;;;7.20;;
1010;SDS011;494;48.744;10.106;2022-07-19T00:52:49;15.73;;;7.37;;
1010;SDS011;494;48.744;10.106;2022-07-19T00:55:21;16.00;;;7.67;;
1010;SDS011;494;48.744;10.106;2022-07-19T00:57:52;15.53;;;7.57;;
1010;SDS011;494;48.744;10.106;2022-07-19T01:00:24;15.77;;;8.03;;
1010;SDS011;494;48.744;10.106;2022-07-19T01:02:54;15.33;;;7.37;;
1010;SDS011;494;48.744;10.106;2022-07-19T01:05:24;15.30;;;7.40;;
1010;SDS011;494;48.744;10.106;2022-07-19T01:07:52;13.67;;;6.90;;
1010;SDS011;494;48.744;10.106;2022-07-19T01:10:21;15.60;;;7.27;;
1010;SDS011;494;48.744;10.106;2022-07-19T01:12:50;14.40;;;8.00;;
1010;SDS011;494;48.744;10.106;2022-07-19T01:15:21;13.13;;;7.30;;
1010;SDS011;494;48.744;10.106;2022-07-19T01:17:52;14.30;;;7.47;;
1010;SDS011;494;48.744;10.106;2022-07-19T01:20:22;15.23;;;7.90;;
1010;SDS011;494;48.744;10.106;2022-07-19T01:22:58;14.63;;;8.10;;
1010;SDS011;494;48.744;10.106;2022-07-19T01:25:31;15.40;;;8.63;;
1010;SDS011;494;48.744;10.106;2022-07-19T01:28:02;20.83;;;7.80;;
1010;SDS011;494;48.744;10.106;2022-07-19T01:30:32;14.53;;;7.90;;
1010;SDS011;494;48.744;10.106;2022-07-19T01:33:01;15.60;;;7.90;;
1010;SDS011;494;48.744;10.106;2022-07-19T01:35:31;17.13;;;7.73;;
1010;SDS011;494;48.744;10.106;2022-07-19T01:38:01;16.03;;;8.27;;
1010;SDS011;494;48.744;10.106;2022-07-19T01:40:29;15.00;;;8.00;;
1010;SDS011;494;48.744;10.106;2022-07-19T01:42:59;13.47;;;7.70;;
1010;SDS011;494;48.744;10.106;2022-07-19T01:45:28;13.70;;;7.70;;
1010;SDS011;494;48.744;10.106;2022-07-19T01:47:56;13.80;;;7.30;;
1010;SDS011;494;48.744;10.106;2022-07-19T01:50:25;13.50;;;8.00;;
1010;SDS011;494;48.744;10.106;2022-07-19T01:52:54;17.77;;;8.47;;
1010;SDS011;494;48.744;10.106;2022-07-19T01:55:23;15.30;;;8.17;;
1010;SDS011;494;48.744;10.106;2022-07-19T01:57:52;15.80;;;8.70;;
1010;SDS011;494;48.744;10.106;2022-07-19T02:00:20;14.33;;;8.03;;
1010;SDS011;494;48.744;10.106;2022-07-19T02:02:49;15.70;;;8.53;;
1010;SDS011;494;48.744;10.106;2022-07-19T02:05:17;15.63;;;8.13;;
1010;SDS011;494;48.744;10.106;2022-07-19T02:07:46;15.87;;;7.87;;
1010;SDS011;494;48.744;10.106;2022-07-19T02:10:15;14.43;;;7.77;;
1010;SDS011;494;48.744;10.106;2022-07-19T02:12:46;15.60;;;7.70;;
1010;SDS011;494;48.744;10.106;2022-07-19T02:15:15;14.33;;;8.30;;
1010;SDS011;494;48.744;10.106;2022-07-19T02:17:43;14.83;;;8.27;;
1010;SDS011;494;48.744;10.106;2022-07-19T02:20:12;17.73;;;8.67;;
1010;SDS011;494;48.744;10.106;2022-07-19T02:22:41;15.10;;;8.33;;
1010;SDS011;494;48.744;10.106;2022-07-19T02:25:10;15.63;;;7.87;;
1010;SDS011;494;48.744;10.106;2022-07-19T02:27:39;14.77;;;8.50;;
1010;SDS011;494;48.744;10.106;2022-07-19T02:30:10;16.10;;;8.20;;
1010;SDS011;494;48.744;10.106;2022-07-19T02:32:40;17.40;;;9.10;;
1010;SDS011;494;48.744;10.106;2022-07-19T02:35:10;14.20;;;7.90;;
1010;SDS011;494;48.744;10.106;2022-07-19T02:37:39;15.43;;;8.10;;
1010;SDS011;494;48.744;10.106;2022-07-19T02:40:09;13.57;;;8.77;;
1010;SDS011;494;48.744;10.106;2022-07-19T02:42:38;15.60;;;8.27;;
1010;SDS011;494;48.744;10.106;2022-07-19T02:45:08;15.90;;;8.53;;
1010;SDS011;494;48.744;10.106;2022-07-19T02:47:38;16.67;;;10.80;;
1010;SDS011;494;48.744;10.106;2022-07-19T02:50:07;16.07;;;8.17;;
1010;SDS011;494;48.744;10.106;2022-07-19T02:52:35;16.70;;;12.50;;
1010;SDS011;494;48.744;10.106;2022-07-19T02:55:04;16.30;;;12.73;;
1010;SDS011;494;48.744;10.106;2022-07-19T02:57:34;16.13;;;11.27;;
1010;SDS011;494;48.744;10.106;2022-07-19T03:00:04;15.70;;;11.30;;
1010;SDS011;494;48.744;10.106;2022-07-19T03:02:36;14.80;;;10.87;;
1010;SDS011;494;48.744;10.106;2022-07-19T03:05:05;15.83;;;9.47;;
1010;SDS011;494;48.744;10.106;2022-07-19T03:07:36;15.03;;;8.57;;
1010;SDS011;494;48.744;10.106;2022-07-19T03:10:05;17.30;;;9.10;;
1010;SDS011;494;48.744;10.106;2022-07-19T03:12:34;15.10;;;8.70;;
1010;SDS011;494;48.744;10.106;2022-07-19T03:15:03;18.60;;;8.90;;
1010;SDS011;494;48.744;10.106;2022-07-19T03:17:34;17.60;;;9.67;;
1010;SDS011;494;48.744;10.106;2022-07-19T03:20:04;15.77;;;9.17;;
1010;SDS011;494;48.744;10.106;2022-07-19T03:22:35;14.80;;;8.17;;
1010;SDS011;494;48.744;10.106;2022-07-19T03:25:04;16.23;;;8.00;;
1010;SDS011;494;48.744;10.106;2022-07-19T03:27:33;15.70;;;8.80;;
1010;SDS011;494;48.744;10.106;2022-07-19T03:30:02;15.80;;;8.83;;
1010;SDS011;494;48.744;10.106;2022-07-19T03:32:32;15.43;;;8.10;;
1010;SDS011;494;48.744;10.106;2022-07-19T03:35:01;15.30;;;8.37;;
1010;SDS011;494;48.744;10.106;2022-07-19T03:37:32;15.80;;;8.23;;
1010;SDS011;494;48.744;10.106;2022-07-19T03:40:00;15.37;;;8.80;;
1010;SDS011;494;48.744;10.106;2022-07-19T03:42:29;20.90;;;9.50;;
1010;SDS011;494;48.744;10.106;2022-07-19T03:44:58;18.50;;;9.10;;
1010;SDS011;494;48.744;10.106;2022-07-19T03:47:26;15.03;;;9.23;;
1010;SDS011;494;48.744;10.106;2022-07-19T03:49:55;16.43;;;8.63;;
1010;SDS011;494;48.744;10.106;2022-07-19T03:52:25;19.20;;;9.50;;
1010;SDS011;494;48.744;10.106;2022-07-19T03:54:54;18.17;;;9.80;;
1010;SDS011;494;48.744;10.106;2022-07-19T03:57:23;20.47;;;9.70;;
1010;SDS011;494;48.744;10.106;2022-07-19T03:59:51;19.40;;;10.10;;
1010;SDS011;494;48.744;10.106;2022-07-19T04:02:20;18.43;;;9.23;;
1010;SDS011;494;48.744;10.106;2022-07-19T04:04:48;19.63;;;11.47;;
1010;SDS011;494;48.744;10.106;2022-07-19T04:07:17;17.23;;;12.80;;
1010;SDS011;494;48.744;10.106;2022-07-19T04:09:47;19.87;;;12.73;;
1010;SDS011;494;48.744;10.106;2022-07-19T04:12:15;18.00;;;12.00;;
1010;SDS011;494;48.744;10.106;2022-07-19T04:14:44;18.33;;;12.37;;
1010;SDS011;494;48.744;10.106;2022-07-19T04:17:12;18.07;;;13.17;;
1010;SDS011;494;48.744;10.106;2022-07-19T04:19:41;18.03;;;13.87;;
1010;SDS011;494;48.744;10.106;2022-07-19T04:22:09;17.63;;;12.70;;
1010;SDS011;494;48.744;10.106;2022-07-19T04:24:38;22.20;;;13.50;;
1010;SDS011;494;48.744;10.106;2022-07-19T04:27:08;30.40;;;15.40;;
1010;SDS011;494;48.744;10.106;2022-07-19T04:29:36;19.77;;;14.77;;
1010;SDS011;494;48.744;10.106;2022-07-19T04:32:05;22.67;;;15.00;;
1010;SDS011;494;48.744;10.106;2022-07-19T04:34:34;22.73;;;14.27;;
1010;SDS011;494;48.744;10.106;2022-07-19T04:37:02;21.73;;;14.73;;
1010;SDS011;494;48.744;10.106;2022-07-19T04:39:31;21.13;;;13.80;;
1010;SDS011;494;48.744;10.106;2022-07-19T04:42:00;22.17;;;14.77;;
1010;SDS011;494;48.744;10.106;2022-07-19T04:44:30;25.63;;;14.50;;
1010;SDS011;494;48.744;10.106;2022-07-19T04:46:58;24.00;;;14.60;;
1010;SDS011;494;48.744;10.106;2022-07-19T04:49:27;22.60;;;14.97;;
1010;SDS011;494;48.744;10.106;2022-07-19T04:51:56;24.27;;;15.33;;
1010;SDS011;494;48.744;10.106;2022-07-19T04:54:24;19.50;;;14.50;;
1010;SDS011;494;48.744;10.106;2022-07-19T04:56:53;23.30;;;14.07;;
1010;SDS011;494;48.744;10.106;2022-07-19T04:59:22;21.67;;;14.57;;
1010;SDS011;494;48.744;10.106;2022-07-19T05:01:51;23.97;;;13.63;;
1010;SDS011;494;48.744;10.106;2022-07-19T05:04:20;31.00;;;14.53;;
1010;SDS011;494;48.744;10.106;2022-07-19T05:06:49;22.00;;;13.43;;
1010;SDS011;494;48.744;10.106;2022-07-19T05:09:23;20.70;;;13.00;;
1010;SDS011;494;48.744;10.106;2022-07-19T05:11:52;22.20;;;14.20;;
1010;SDS011;494;48.744;10.106;2022-07-19T05:14:22;20.23;;;14.20;;
1010;SDS011;494;48.744;10.106;2022-07-19T05:16:52;24.20;;;15.00;;
1010;SDS011;494;48.744;10.106;2022-07-19T05:19:21;23.03;;;14.77;;
1010;SDS011;494;48.744;10.106;2022-07-19T05:21:49;21.17;;;14.70;;
1010;SDS011;494;48.744;10.106;2022-07-19T05:24:18;21.10;;;15.20;;
1010;SDS011;494;48.744;10.106;2022-07-19T05:26:47;31.63;;;16.50;;
1010;SDS011;494;48.744;10.106;2022-07-19T05:29:16;27.93;;;15.17;;
1010;SDS011;494;48.744;10.106;2022-07-19T05:31:44;20.17;;;14.30;;
1010;SDS011;494;48.744;10.106;2022-07-19T05:34:15;25.17;;;15.43;;
1010;SDS011;494;48.744;10.106;2022-07-19T05:36:43;25.87;;;15.47;;
1010;SDS011;494;48.744;10.106;2022-07-19T05:39:12;27.97;;;13.80;;
1010;SDS011;494;48.744;10.106;2022-07-19T05:41:41;30.67;;;14.00;;
1010;SDS011;494;48.744;10.106;2022-07-19T05:44:10;25.73;;;14.93;;
1010;SDS011;494;48.744;10.106;2022-07-19T05:46:39;26.10;;;13.30;;
1010;SDS011;494;48.744;10.106;2022-07-19T05:49:09;22.97;;;13.90;;
1010;SDS011;494;48.744;10.106;2022-07-19T05:51:39;20.53;;;14.07;;
1010;SDS011;494;48.744;10.106;2022-07-19T05:54:08;23.40;;;13.53;;
1010;SDS011;494;48.744;10.106;2022-07-19T05:56:36;20.43;;;12.23;;
1010;SDS011;494;48.744;10.106;2022-07-19T05:59:05;28.57;;;11.53;;
1010;SDS011;494;48.744;10.106;2022-07-19T06:01:33;22.03;;;11.13;;
1010;SDS011;494;48.744;10.106;2022-07-19T06:04:03;25.27;;;12.67;;
1010;SDS011;494;48.744;10.106;2022-07-19T06:06:32;23.03;;;11.70;;
1010;SDS011;494;48.744;10.106;2022-07-19T06:09:03;23.23;;;10.40;;
1010;SDS011;494;48.744;10.106;2022-07-19T06:11:34;21.37;;;10.00;;
1010;SDS011;494;48.744;10.106;2022-07-19T06:14:04;26.13;;;10.50;;
1010;SDS011;494;48.744;10.106;2022-07-19T06:16:33;20.00;;;10.40;;
1010;SDS011;494;48.744;10.106;2022-07-19T06:19:04;26.10;;;10.70;;
1010;SDS011;494;48.744;10.106;2022-07-19T06:21:34;21.13;;;10.97;;
1010;SDS011;494;48.744;10.106;2022-07-19T06:24:05;19.70;;;10.87;;
1010;SDS011;494;48.744;10.106;2022-07-19T06:26:33;24.47;;;10.33;;
1010;SDS011;494;48.744;10.106;2022-07-19T06:29:02;21.70;;;10.90;;
1010;SDS011;494;48.744;10.106;2022-07-19T06:31:31;29.07;;;11.77;;
1010;SDS011;494;48.744;10.106;2022-07-19T06:34:00;26.87;;;11.37;;
1010;SDS011;494;48.744;10.106;2022-07-19T06:36:34;27.53;;;13.10;;
1010;SDS011;494;48.744;10.106;2022-07-19T06:39:04;27.00;;;11.37;;
1010;SDS011;494;48.744;10.106;2022-07-19T06:41:33;27.30;;;11.37;;
1010;SDS011;494;48.744;10.106;2022-07-19T06:44:02;21.73;;;10.63;;
1010;SDS011;494;48.744;10.106;2022-07-19T06:46:31;27.90;;;10.17;;
1010;SDS011;494;48.744;10.106;2022-07-19T06:48:59;22.20;;;10.97;;
1010;SDS011;494;48.744;10.106;2022-07-19T06:51:28;23.20;;;9.90;;
1010;SDS011;494;48.744;10.106;2022-07-19T06:53:57;20.87;;;10.07;;
1010;SDS011;494;48.744;10.106;2022-07-19T06:56:27;23.67;;;12.03;;
1010;SDS011;494;48.744;10.106;2022-07-19T06:58:56;25.50;;;11.03;;
1010;SDS011;494;48.744;10.106;2022-07-19T07:01:24;26.10;;;9.13;;
1010;SDS011;494;48.744;10.106;2022-07-19T07:03:54;24.43;;;9.50;;
1010;SDS011;494;48.744;10.106;2022-07-19T07:06:22;25.17;;;9.90;;
1010;SDS011;494;48.744;10.106;2022-07-19T07:08:51;51.23;;;10.50;;
1010;SDS011;494;48.744;10.106;2022-07-19T07:11:20;43.20;;;9.63;;
1010;SDS011;494;48.744;10.106;2022-07-19T07:13:49;28.00;;;8.90;;
1010;SDS011;494;48.744;10.106;2022-07-19T07:16:18;38.00;;;8.80;;
1010;SDS011;494;48.744;10.106;2022-07-19T07:18:47;31.30;;;9.40;;
1010;SDS011;494;48.744;10.106;2022-07-19T07:21:15;36.53;;;9.97;;
1010;SDS011;494;48.744;10.106;2022-07-19T07:23:44;32.87;;;12.73;;
1010;SDS011;494;48.744;10.106;2022-07-19T07:26:13;28.47;;;8.40;;
1010;SDS011;494;48.744;10.106;2022-07-19T07:28:42;30.23;;;8.10;;
1010;SDS011;494;48.744;10.106;2022-07-19T07:31:11;27.70;;;7.80;;
1010;SDS011;494;48.744;10.106;2022-07-19T07:33:40;31.77;;;8.00;;
1010;SDS011;494;48.744;10.106;2022-07-19T07:36:09;35.53;;;8.20;;
1010;SDS011;494;48.744;10.106;2022-07-19T07:38:37;31.70;;;8.63;;
1010;SDS011;494;48.744;10.106;2022-07-19T07:41:06;26.70;;;7.90;;
1010;SDS011;494;48.744;10.106;2022-07-19T07:43:54;21.10;;;7.10;;
1010;SDS011;494;48.744;10.106;2022-07-19T07:46:24;17.97;;;6.70;;
1010;SDS011;494;48.744;10.106;2022-07-19T07:48:53;16.93;;;5.90;;
1010;SDS011;494;48.744;10.106;2022-07-19T07:51:22;14.83;;;6.10;;
1010;SDS011;494;48.744;10.106;2022-07-19T07:54:10;15.93;;;6.20;;
1010;SDS011;494;48.744;10.106;2022-07-19T07:56:39;15.20;;;5.80;;
1010;SDS011;494;48.744;10.106;2022-07-19T07:59:08;13.60;;;5.47;;
1010;SDS011;494;48.744;10.106;2022-07-19T08:01:38;14.47;;;6.20;;
1010;SDS011;494;48.744;10.106;2022-07-19T08:04:07;14.10;;;5.90;;
1010;SDS011;494;48.744;10.106;2022-07-19T08:06:36;13.30;;;5.30;;
1010;SDS011;494;48.744;10.106;2022-07-19T08:09:05;13.97;;;5.50;;
1010;SDS011;494;48.744;10.106;2022-07-19T08:11:34;14.07;;;5.60;;
1010;SDS011;494;48.744;10.106;2022-07-19T08:14:03;13.80;;;5.90;;
1010;SDS011;494;48.744;10.106;2022-07-19T08:16:32;13.07;;;5.40;;
1010;SDS011;494;48.744;10.106;2022-07-19T08:19:02;16.40;;;5.87;;
1010;SDS011;494;48.744;10.106;2022-07-19T08:21:31;14.97;;;5.70;;
1010;SDS011;494;48.744;10.106;2022-07-19T08:24:00;14.60;;;5.70;;
1010;SDS011;494;48.744;10.106;2022-07-19T08:26:36;13.20;;;5.30;;
1010;SDS011;494;48.744;10.106;2022-07-19T08:29:04;12.87;;;4.77;;
1010;SDS011;494;48.744;10.106;2022-07-19T08:31:34;17.10;;;5.40;;
1010;SDS011;494;48.744;10.106;2022-07-19T08:34:04;13.07;;;5.77;;
1010;SDS011;494;48.744;10.106;2022-07-19T08:36:33;13.47;;;5.43;;
1010;SDS011;494;48.744;10.106;2022-07-19T08:39:02;15.97;;;5.17;;
1010;SDS011;494;48.744;10.106;2022-07-19T08:41:31;15.17;;;5.37;;
1010;SDS011;494;48.744;10.106;2022-07-19T08:44:03;14.00;;;5.17;;
1010;SDS011;494;48.744;10.106;2022-07-19T08:46:32;12.93;;;5.00;;
1010;SDS011;494;48.744;10.106;2022-07-19T08:49:01;14.17;;;5.20;;
1010;SDS011;494;48.744;10.106;2022-07-19T08:51:32;14.87;;;5.67;;
1010;SDS011;494;48.744;10.106;2022-07-19T08:54:01;13.80;;;5.50;;
1010;SDS011;494;48.744;10.106;2022-07-19T08:56:30;12.83;;;5.10;;
1010;SDS011;494;48.744;10.106;2022-07-19T08:59:16;16.30;;;5.37;;
1010;SDS011;494;48.744;10.106;2022-07-19T09:01:44;17.00;;;5.20;;
1010;SDS011;494;48.744;10.106;2022-07-19T09:04:15;17.27;;;5.47;;
1010;SDS011;494;48.744;10.106;2022-07-19T09:06:46;13.70;;;4.97;;
1010;SDS011;494;48.744;10.106;2022-07-19T09:09:18;17.37;;;5.63;;
1010;SDS011;494;48.744;10.106;2022-07-19T09:11:49;14.10;;;5.23;;
1010;SDS011;494;48.744;10.106;2022-07-19T09:14:20;13.63;;;5.10;;
1010;SDS011;494;48.744;10.106;2022-07-19T09:16:59;15.10;;;5.43;;
1010;SDS011;494;48.744;10.106;2022-07-19T09:19:37;14.13;;;6.20;;
1010;SDS011;494;48.744;10.106;2022-07-19T09:22:08;16.40;;;5.77;;
1010;SDS011;494;48.744;10.106;2022-07-19T09:24:39;14.17;;;5.37;;
1010;SDS011;494;48.744;10.106;2022-07-19T09:27:11;15.03;;;5.43;;
1010;SDS011;494;48.744;10.106;2022-07-19T09:29:42;14.90;;;5.97;;
1010;SDS011;494;48.744;10.106;2022-07-19T09:32:13;15.80;;;6.17;;
1010;SDS011;494;48.744;10.106;2022-07-19T09:34:50;17.70;;;5.87;;
1010;SDS011;494;48.744;10.106;2022-07-19T09:37:24;15.20;;;5.83;;
1010;SDS011;494;48.744;10.106;2022-07-19T09:39:55;14.77;;;5.50;;
1010;SDS011;494;48.744;10.106;2022-07-19T09:42:33;14.80;;;5.07;;
1010;SDS011;494;48.744;10.106;2022-07-19T09:45:06;17.47;;;6.00;;
1010;SDS011;494;48.744;10.106;2022-07-19T09:47:37;16.23;;;5.50;;
1010;SDS011;494;48.744;10.106;2022-07-19T09:50:10;15.90;;;6.00;;
1010;SDS011;494;48.744;10.106;2022-07-19T09:52:44;13.80;;;5.30;;
1010;SDS011;494;48.744;10.106;2022-07-19T09:55:15;15.73;;;5.63;;
1010;SDS011;494;48.744;10.106;2022-07-19T09:57:45;14.60;;;6.07;;
1010;SDS011;494;48.744;10.106;2022-07-19T10:00:17;15.40;;;5.63;;
1010;SDS011;494;48.744;10.106;2022-07-19T10:02:48;14.50;;;5.50;;
1010;SDS011;494;48.744;10.106;2022-07-19T10:05:23;18.80;;;5.50;;
1010;SDS011;494;48.744;10.106;2022-07-19T10:07:53;15.33;;;5.70;;
1010;SDS011;494;48.744;10.106;2022-07-19T10:10:23;16.00;;;6.60;;
1010;SDS011;494;48.744;10.106;2022-07-19T10:12:57;16.40;;;6.23;;
1010;SDS011;494;48.744;10.106;2022-07-19T10:15:26;15.80;;;6.50;;
1010;SDS011;494;48.744;10.106;2022-07-19T10:18:09;18.53;;;6.87;;
1010;SDS011;494;48.744;10.106;2022-07-19T10:20:42;16.97;;;6.33;;
1010;SDS011;494;48.744;10.106;2022-07-19T10:23:14;15.70;;;7.13;;
1010;SDS011;494;48.744;10.106;2022-07-19T10:25:43;15.33;;;6.63;;
1010;SDS011;494;48.744;10.106;2022-07-19T10:28:30;18.43;;;6.97;;
1010;SDS011;494;48.744;10.106;2022-07-19T10:31:28;17.77;;;6.80;;
1010;SDS011;494;48.744;10.106;2022-07-19T10:33:59;14.87;;;6.43;;
1010;SDS011;494;48.744;10.106;2022-07-19T10:36:32;17.10;;;6.60;;
1010;SDS011;494;48.744;10.106;2022-07-19T10:39:23;15.60;;;5.90;;
1010;SDS011;494;48.744;10.106;2022-07-19T10:42:10;17.30;;;5.80;;
1010;SDS011;494;48.744;10.106;2022-07-19T10:50:48;16.40;;;6.60;;
1010;SDS011;494;48.744;10.106;2022-07-19T10:56:33;14.57;;;6.30;;
1010;SDS011;494;48.744;10.106;2022-07-19T10:59:33;16.70;;;6.23;;
1010;SDS011;494;48.744;10.106;2022-07-19T11:02:08;15.93;;;5.97;;
1010;SDS011;494;48.744;10.106;2022-07-19T11:05:19;15.90;;;6.00;;
1010;SDS011;494;48.744;10.106;2022-07-19T11:07:50;14.87;;;5.77;;
1010;SDS011;494;48.744;10.106;2022-07-19T11:10:24;17.53;;;6.27;;
1010;SDS011;494;48.744;10.106;2022-07-19T11:12:56;16.70;;;6.60;;
1010;SDS011;494;48.744;10.106;2022-07-19T11:15:26;16.40;;;6.60;;
1010;SDS011;494;48.744;10.106;2022-07-19T11:18:02;16.03;;;6.40;;
1010;SDS011;494;48.744;10.106;2022-07-19T11:20:34;16.80;;;6.60;;
1010;SDS011;494;48.744;10.106;2022-07-19T11:23:04;19.03;;;6.53;;
1010;SDS011;494;48.744;10.106;2022-07-19T11:25:35;14.93;;;6.60;;
1010;SDS011;494;48.744;10.106;2022-07-19T11:28:06;15.73;;;6.10;;
1010;SDS011;494;48.744;10.106;2022-07-19T11:30:46;16.63;;;6.63;;
1010;SDS011;494;48.744;10.106;2022-07-19T11:33:15;17.43;;;6.37;;
1010;SDS011;494;48.744;10.106;2022-07-19T11:35:53;17.40;;;7.00;;
1010;SDS011;494;48.744;10.106;2022-07-19T11:38:23;20.57;;;6.27;;
1010;SDS011;494;48.744;10.106;2022-07-19T11:41:13;16.30;;;6.47;;
1010;SDS011;494;48.744;10.106;2022-07-19T11:43:44;16.40;;;7.57;;
1010;SDS011;494;48.744;10.106;2022-07-19T11:46:20;14.73;;;6.17;;
1010;SDS011;494;48.744;10.106;2022-07-19T11:48:54;15.70;;;6.80;;
1010;SDS011;494;48.744;10.106;2022-07-19T11:51:23;19.30;;;7.20;;
1010;SDS011;494;48.744;10.106;2022-07-19T11:53:53;16.10;;;6.13;;
1010;SDS011;494;48.744;10.106;2022-07-19T11:56:26;17.23;;;6.80;;
1010;SDS011;494;48.744;10.106;2022-07-19T11:58:59;18.57;;;7.77;;
1010;SDS011;494;48.744;10.106;2022-07-19T12:01:31;14.43;;;6.30;;
1010;SDS011;494;48.744;10.106;2022-07-19T12:04:04;15.97;;;6.17;;
1010;SDS011;494;48.744;10.106;2022-07-19T12:06:36;16.73;;;5.70;;
1010;SDS011;494;48.744;10.106;2022-07-19T12:09:06;15.17;;;5.80;;
1010;SDS011;494;48.744;10.106;2022-07-19T12:11:40;20.07;;;6.20;;
1010;SDS011;494;48.744;10.106;2022-07-19T12:14:18;15.93;;;5.40;;
1010;SDS011;494;48.744;10.106;2022-07-19T12:16:50;17.33;;;5.40;;
1010;SDS011;494;48.744;10.106;2022-07-19T12:19:37;14.80;;;5.27;;
1010;SDS011;494;48.744;10.106;2022-07-19T12:22:25;15.00;;;6.00;;
1010;SDS011;494;48.744;10.106;2022-07-19T12:24:56;16.93;;;6.20;;
1010;SDS011;494;48.744;10.106;2022-07-19T12:27:29;15.23;;;5.63;;
1010;SDS011;494;48.744;10.106;2022-07-19T12:29:58;22.23;;;6.23;;
1010;SDS011;494;48.744;10.106;2022-07-19T12:32:29;15.70;;;5.37;;
1010;SDS011;494;48.744;10.106;2022-07-19T12:35:02;15.15;;;5.60;;
1010;SDS011;494;48.744;10.106;2022-07-19T12:37:35;17.77;;;5.82;;
1010;SDS011;494;48.744;10.106;2022-07-19T12:40:08;19.40;;;6.05;;
1010;SDS011;494;48.744;10.106;2022-07-19T12:42:43;17.33;;;5.57;;
1010;SDS011;494;48.744;10.106;2022-07-19T12:45:14;16.45;;;5.50;;
1010;SDS011;494;48.744;10.106;2022-07-19T12:47:45;15.57;;;6.60;;
1010;SDS011;494;48.744;10.106;2022-07-19T12:50:19;15.95;;;5.53;;
1010;SDS011;494;48.744;10.106;2022-07-19T12:52:49;17.65;;;6.25;;
1010;SDS011;494;48.744;10.106;2022-07-19T12:55:20;15.57;;;5.65;;
1010;SDS011;494;48.744;10.106;2022-07-19T12:57:52;15.25;;;6.43;;
1010;SDS011;494;48.744;10.106;2022-07-19T13:00:23;15.98;;;6.30;;
1010;SDS011;494;48.744;10.106;2022-07-19T13:02:55;15.88;;;6.30;;
1010;SDS011;494;48.744;10.106;2022-07-19T13:05:24;15.10;;;6.15;;
1010;SDS011;494;48.744;10.106;2022-07-19T13:07:54;17.08;;;6.75;;
1010;SDS011;494;48.744;10.106;2022-07-19T13:10:26;16.35;;;5.97;;
1010;SDS011;494;48.744;10.106;2022-07-19T13:12:57;16.98;;;6.45;;
1010;SDS011;494;48.744;10.106;2022-07-19T13:15:27;16.13;;;6.68;;
1010;SDS011;494;48.744;10.106;2022-07-19T13:17:55;17.90;;;6.60;;
1010;SDS011;494;48.744;10.106;2022-07-19T13:20:26;15.52;;;6.45;;
1010;SDS011;494;48.744;10.106;2022-07-19T13:22:55;18.75;;;6.05;;
1010;SDS011;494;48.744;10.106;2022-07-19T13:25:23;15.80;;;6.57;;
1010;SDS011;494;48.744;10.106;2022-07-19T13:28:12;15.98;;;6.13;;
1010;SDS011;494;48.744;10.106;2022-07-19T13:30:41;17.77;;;6.45;;
1010;SDS011;494;48.744;10.106;2022-07-19T13:33:10;14.93;;;6.43;;
1010;SDS011;494;48.744;10.106;2022-07-19T13:35:38;21.13;;;6.50;;
1010;SDS011;494;48.744;10.106;2022-07-19T13:38:07;17.75;;;5.78;;
1010;SDS011;494;48.744;10.106;2022-07-19T13:40:35;16.92;;;6.00;;
1010;SDS011;494;48.744;10.106;2022-07-19T13:43:06;16.85;;;7.00;;
1010;SDS011;494;48.744;10.106;2022-07-19T13:45:36;24.08;;;6.90;;
1010;SDS011;494;48.744;10.106;2022-07-19T13:48:05;18.67;;;6.45;;
1010;SDS011;494;48.744;10.106;2022-07-19T13:50:33;17.00;;;6.47;;
1010;SDS011;494;48.744;10.106;2022-07-19T13:53:04;16.13;;;6.60;;
1010;SDS011;494;48.744;10.106;2022-07-19T13:55:33;16.98;;;6.55;;
1010;SDS011;494;48.744;10.106;2022-07-19T13:58:01;17.88;;;6.55;;
1010;SDS011;494;48.744;10.106;2022-07-19T14:00:30;16.42;;;7.10;;
1010;SDS011;494;48.744;10.106;2022-07-19T14:03:00;19.73;;;7.13;;
1010;SDS011;494;48.744;10.106;2022-07-19T14:05:29;17.17;;;6.32;;
1010;SDS011;494;48.744;10.106;2022-07-19T14:07:57;17.10;;;7.28;;
1010;SDS011;494;48.744;10.106;2022-07-19T14:10:26;20.80;;;7.05;;
1010;SDS011;494;48.744;10.106;2022-07-19T14:12:54;18.65;;;7.03;;
1010;SDS011;494;48.744;10.106;2022-07-19T14:15:43;18.55;;;6.80;;
1010;SDS011;494;48.744;10.106;2022-07-19T14:18:12;17.02;;;6.57;;
1010;SDS011;494;48.744;10.106;2022-07-19T14:20:41;17.52;;;6.65;;
1010;SDS011;494;48.744;10.106;2022-07-19T14:23:11;17.55;;;6.78;;
1010;SDS011;494;48.744;10.106;2022-07-19T14:25:41;23.55;;;7.07;;
1010;SDS011;494;48.744;10.106;2022-07-19T14:28:24;17.27;;;7.75;;
1010;SDS011;494;48.744;10.106;2022-07-19T14:30:53;18.13;;;6.78;;
1010;SDS011;494;48.744;10.106;2022-07-19T14:33:23;19.00;;;7.68;;
1010;SDS011;494;48.744;10.106;2022-07-19T14:35:52;15.70;;;6.57;;
1010;SDS011;494;48.744;10.106;2022-07-19T14:38:21;16.38;;;7.03;;
1010;SDS011;494;48.744;10.106;2022-07-19T14:40:49;19.00;;;6.78;;
1010;SDS011;494;48.744;10.106;2022-07-19T14:43:18;16.60;;;7.05;;
1010;SDS011;494;48.744;10.106;2022-07-19T14:45:47;16.83;;;6.90;;
1010;SDS011;494;48.744;10.106;2022-07-19T14:48:15;17.52;;;6.97;;
1010;SDS011;494;48.744;10.106;2022-07-19T14:50:45;16.05;;;6.90;;
1010;SDS011;494;48.744;10.106;2022-07-19T14:53:14;17.20;;;6.78;;
1010;SDS011;494;48.744;10.106;2022-07-19T14:55:42;16.80;;;7.10;;
1010;SDS011;494;48.744;10.106;2022-07-19T14:58:11;19.27;;;7.35;;
1010;SDS011;494;48.744;10.106;2022-07-19T15:00:39;16.80;;;6.90;;
1010;SDS011;494;48.744;10.106;2022-07-19T15:03:09;21.98;;;7.18;;
1010;SDS011;494;48.744;10.106;2022-07-19T15:05:37;18.40;;;7.43;;
1010;SDS011;494;48.744;10.106;2022-07-19T15:08:07;17.90;;;7.13;;
1010;SDS011;494;48.744;10.106;2022-07-19T15:10:36;17.70;;;6.78;;
1010;SDS011;494;48.744;10.106;2022-07-19T15:13:04;20.77;;;8.13;;
1010;SDS011;494;48.744;10.106;2022-07-19T15:15:33;18.77;;;7.80;;
1010;SDS011;494;48.744;10.106;2022-07-19T15:18:02;18.60;;;7.45;;
1010;SDS011;494;48.744;10.106;2022-07-19T15:20:36;19.98;;;7.15;;
1010;SDS011;494;48.744;10.106;2022-07-19T15:23:05;18.17;;;6.97;;
1010;SDS011;494;48.744;10.106;2022-07-19T15:25:36;17.60;;;6.80;;
1010;SDS011;494;48.744;10.106;2022-07-19T15:28:05;16.40;;;6.18;;